Liverpool, Illinois
Current Conditions -  °F | °C
As of 9:54 PM on Saturday 22 Nov 2014 (Local Time) from KPIA Reporting Station
Overcast Overcast  
Wind Chill: 53°   Ceiling: 1200
Heat Index: 53°   Visibility: 9mi
Dew Point: 47°   Wind: 14mph
Humidity: 80%   Direction: 190°S
Pressure: 29.84"   Gusts: 22mph
Location:  40.39°N, 90°W
Report Text: KPIA 230354Z 19012G19KT 9SM OVC012 12/08 A2984 RMK AO2 SLP106 T01170083
Loading
Personal Weather Stations






























Interactive Weather Map New forecast layout! Learn more

10-Day Weather Forecast

Advertisements
Track Severe Weather on mobile